sensor_id;sensor_type;location;lat;lon;timestamp;P1;durP1;ratioP1;P2;durP2;ratioP2
64297;SDS011;50639;53.270;7.956;2023-04-23T00:01:55;32.75;;;26.77;;
64297;SDS011;50639;53.270;7.956;2023-04-23T00:04:24;41.60;;;32.40;;
64297;SDS011;50639;53.270;7.956;2023-04-23T00:09:16;48.58;;;31.17;;
64297;SDS011;50639;53.270;7.956;2023-04-23T00:11:42;43.65;;;30.48;;
64297;SDS011;50639;53.270;7.956;2023-04-23T00:14:08;32.25;;;22.63;;
64297;SDS011;50639;53.270;7.956;2023-04-23T00:16:35;39.93;;;27.47;;
64297;SDS011;50639;53.270;7.956;2023-04-23T00:19:01;34.45;;;24.42;;
64297;SDS011;50639;53.270;7.956;2023-04-23T00:21:27;34.58;;;26.77;;
64297;SDS011;50639;53.270;7.956;2023-04-23T00:23:52;34.92;;;26.63;;
64297;SDS011;50639;53.270;7.956;2023-04-23T00:26:18;32.53;;;23.27;;
64297;SDS011;50639;53.270;7.956;2023-04-23T00:28:43;39.78;;;25.80;;
64297;SDS011;50639;53.270;7.956;2023-04-23T00:31:09;34.90;;;24.30;;
64297;SDS011;50639;53.270;7.956;2023-04-23T00:33:35;31.13;;;22.83;;
64297;SDS011;50639;53.270;7.956;2023-04-23T00:36:01;31.30;;;19.63;;
64297;SDS011;50639;53.270;7.956;2023-04-23T00:38:26;25.70;;;17.73;;
64297;SDS011;50639;53.270;7.956;2023-04-23T00:40:52;32.78;;;20.50;;
64297;SDS011;50639;53.270;7.956;2023-04-23T00:43:17;30.23;;;20.42;;
64297;SDS011;50639;53.270;7.956;2023-04-23T00:45:43;26.25;;;18.58;;
64297;SDS011;50639;53.270;7.956;2023-04-23T00:48:09;26.92;;;19.83;;
64297;SDS011;50639;53.270;7.956;2023-04-23T00:50:35;27.27;;;17.43;;
64297;SDS011;50639;53.270;7.956;2023-04-23T00:53:02;33.15;;;21.42;;
64297;SDS011;50639;53.270;7.956;2023-04-23T00:55:27;31.25;;;22.23;;
64297;SDS011;50639;53.270;7.956;2023-04-23T00:57:53;33.22;;;23.65;;
64297;SDS011;50639;53.270;7.956;2023-04-23T01:00:19;36.65;;;21.63;;
64297;SDS011;50639;53.270;7.956;2023-04-23T01:02:46;32.33;;;21.57;;
64297;SDS011;50639;53.270;7.956;2023-04-23T01:05:13;31.77;;;21.40;;
64297;SDS011;50639;53.270;7.956;2023-04-23T01:07:40;28.55;;;23.65;;
64297;SDS011;50639;53.270;7.956;2023-04-23T01:12:34;28.95;;;21.20;;
64297;SDS011;50639;53.270;7.956;2023-04-23T01:14:59;27.67;;;20.05;;
64297;SDS011;50639;53.270;7.956;2023-04-23T01:17:25;28.02;;;19.70;;
64297;SDS011;50639;53.270;7.956;2023-04-23T01:19:51;25.52;;;18.95;;
64297;SDS011;50639;53.270;7.956;2023-04-23T01:22:17;29.92;;;18.98;;
64297;SDS011;50639;53.270;7.956;2023-04-23T01:24:42;26.73;;;19.70;;
64297;SDS011;50639;53.270;7.956;2023-04-23T01:27:09;27.08;;;19.45;;
64297;SDS011;50639;53.270;7.956;2023-04-23T01:29:35;29.83;;;19.83;;
64297;SDS011;50639;53.270;7.956;2023-04-23T01:32:02;22.65;;;16.42;;
64297;SDS011;50639;53.270;7.956;2023-04-23T01:34:29;24.23;;;17.73;;
64297;SDS011;50639;53.270;7.956;2023-04-23T01:36:56;26.60;;;16.83;;
64297;SDS011;50639;53.270;7.956;2023-04-23T01:39:22;21.45;;;17.27;;
64297;SDS011;50639;53.270;7.956;2023-04-23T01:41:48;23.10;;;17.17;;
64297;SDS011;50639;53.270;7.956;2023-04-23T01:44:14;26.45;;;19.77;;
64297;SDS011;50639;53.270;7.956;2023-04-23T01:46:40;26.58;;;19.38;;
64297;SDS011;50639;53.270;7.956;2023-04-23T01:49:05;23.92;;;17.30;;
64297;SDS011;50639;53.270;7.956;2023-04-23T01:51:31;29.65;;;17.52;;
64297;SDS011;50639;53.270;7.956;2023-04-23T01:53:56;26.45;;;19.80;;
64297;SDS011;50639;53.270;7.956;2023-04-23T01:56:23;26.55;;;20.00;;
64297;SDS011;50639;53.270;7.956;2023-04-23T01:58:51;30.05;;;21.58;;
64297;SDS011;50639;53.270;7.956;2023-04-23T02:01:17;26.50;;;20.05;;
64297;SDS011;50639;53.270;7.956;2023-04-23T02:03:42;24.75;;;18.95;;
64297;SDS011;50639;53.270;7.956;2023-04-23T02:06:08;25.60;;;18.48;;
64297;SDS011;50639;53.270;7.956;2023-04-23T02:08:34;28.50;;;18.92;;
64297;SDS011;50639;53.270;7.956;2023-04-23T02:11:00;26.17;;;18.63;;
64297;SDS011;50639;53.270;7.956;2023-04-23T02:13:25;31.10;;;19.50;;
64297;SDS011;50639;53.270;7.956;2023-04-23T02:15:51;33.35;;;22.70;;
64297;SDS011;50639;53.270;7.956;2023-04-23T02:18:17;31.40;;;20.80;;
64297;SDS011;50639;53.270;7.956;2023-04-23T02:20:42;35.75;;;23.15;;
64297;SDS011;50639;53.270;7.956;2023-04-23T02:23:08;33.22;;;22.25;;
64297;SDS011;50639;53.270;7.956;2023-04-23T02:25:33;27.20;;;20.70;;
64297;SDS011;50639;53.270;7.956;2023-04-23T02:28:02;31.98;;;22.77;;
64297;SDS011;50639;53.270;7.956;2023-04-23T02:30:31;30.50;;;21.38;;
64297;SDS011;50639;53.270;7.956;2023-04-23T02:32:57;28.00;;;21.58;;
64297;SDS011;50639;53.270;7.956;2023-04-23T02:35:22;27.42;;;20.83;;
64297;SDS011;50639;53.270;7.956;2023-04-23T02:37:48;31.15;;;20.13;;
64297;SDS011;50639;53.270;7.956;2023-04-23T02:40:14;28.10;;;19.75;;
64297;SDS011;50639;53.270;7.956;2023-04-23T02:42:39;27.20;;;20.67;;
64297;SDS011;50639;53.270;7.956;2023-04-23T02:45:05;26.35;;;19.50;;
64297;SDS011;50639;53.270;7.956;2023-04-23T02:47:31;29.33;;;21.73;;
64297;SDS011;50639;53.270;7.956;2023-04-23T02:49:56;29.83;;;22.25;;
64297;SDS011;50639;53.270;7.956;2023-04-23T02:52:23;29.15;;;22.45;;
64297;SDS011;50639;53.270;7.956;2023-04-23T02:54:48;26.17;;;21.17;;
64297;SDS011;50639;53.270;7.956;2023-04-23T02:57:14;26.25;;;21.55;;
64297;SDS011;50639;53.270;7.956;2023-04-23T02:59:41;27.85;;;22.00;;
64297;SDS011;50639;53.270;7.956;2023-04-23T03:02:07;31.77;;;23.25;;
64297;SDS011;50639;53.270;7.956;2023-04-23T03:04:32;33.35;;;25.42;;
64297;SDS011;50639;53.270;7.956;2023-04-23T03:06:58;28.98;;;24.10;;
64297;SDS011;50639;53.270;7.956;2023-04-23T03:09:23;28.55;;;22.50;;
64297;SDS011;50639;53.270;7.956;2023-04-23T03:11:48;33.85;;;26.52;;
64297;SDS011;50639;53.270;7.956;2023-04-23T03:14:15;28.85;;;22.95;;
64297;SDS011;50639;53.270;7.956;2023-04-23T03:16:40;31.55;;;25.00;;
64297;SDS011;50639;53.270;7.956;2023-04-23T03:19:06;32.13;;;25.20;;
64297;SDS011;50639;53.270;7.956;2023-04-23T03:21:32;33.63;;;25.17;;
64297;SDS011;50639;53.270;7.956;2023-04-23T03:23:57;32.05;;;24.48;;
64297;SDS011;50639;53.270;7.956;2023-04-23T03:26:23;33.45;;;26.42;;
64297;SDS011;50639;53.270;7.956;2023-04-23T03:28:49;34.38;;;25.50;;
64297;SDS011;50639;53.270;7.956;2023-04-23T03:31:14;37.22;;;24.77;;
64297;SDS011;50639;53.270;7.956;2023-04-23T03:33:40;32.63;;;24.35;;
64297;SDS011;50639;53.270;7.956;2023-04-23T03:36:06;34.50;;;26.40;;
64297;SDS011;50639;53.270;7.956;2023-04-23T03:38:32;32.67;;;25.75;;
64297;SDS011;50639;53.270;7.956;2023-04-23T03:40:58;34.75;;;26.88;;
64297;SDS011;50639;53.270;7.956;2023-04-23T03:43:25;32.08;;;25.45;;
64297;SDS011;50639;53.270;7.956;2023-04-23T03:46:02;31.83;;;26.25;;
64297;SDS011;50639;53.270;7.956;2023-04-23T03:48:31;31.17;;;24.65;;
64297;SDS011;50639;53.270;7.956;2023-04-23T03:50:59;37.58;;;27.88;;
64297;SDS011;50639;53.270;7.956;2023-04-23T03:53:35;32.83;;;26.42;;
64297;SDS011;50639;53.270;7.956;2023-04-23T03:56:20;34.03;;;26.48;;
64297;SDS011;50639;53.270;7.956;2023-04-23T03:58:55;33.97;;;27.10;;
64297;SDS011;50639;53.270;7.956;2023-04-23T04:01:20;34.28;;;25.48;;
64297;SDS011;50639;53.270;7.956;2023-04-23T04:03:46;33.63;;;26.63;;
64297;SDS011;50639;53.270;7.956;2023-04-23T04:06:12;33.17;;;26.15;;
64297;SDS011;50639;53.270;7.956;2023-04-23T04:08:39;35.45;;;28.35;;
64297;SDS011;50639;53.270;7.956;2023-04-23T04:11:05;33.10;;;27.65;;
64297;SDS011;50639;53.270;7.956;2023-04-23T04:13:30;39.85;;;29.75;;
64297;SDS011;50639;53.270;7.956;2023-04-23T04:15:56;35.15;;;29.15;;
64297;SDS011;50639;53.270;7.956;2023-04-23T04:18:21;38.83;;;30.83;;
64297;SDS011;50639;53.270;7.956;2023-04-23T04:20:47;36.35;;;28.67;;
64297;SDS011;50639;53.270;7.956;2023-04-23T04:23:12;37.28;;;29.75;;
64297;SDS011;50639;53.270;7.956;2023-04-23T04:25:38;37.97;;;28.98;;
64297;SDS011;50639;53.270;7.956;2023-04-23T04:28:04;38.45;;;29.90;;
64297;SDS011;50639;53.270;7.956;2023-04-23T04:30:32;35.78;;;27.55;;
64297;SDS011;50639;53.270;7.956;2023-04-23T04:32:58;40.78;;;31.65;;
64297;SDS011;50639;53.270;7.956;2023-04-23T04:35:25;42.90;;;32.95;;
64297;SDS011;50639;53.270;7.956;2023-04-23T04:37:51;33.88;;;26.88;;
64297;SDS011;50639;53.270;7.956;2023-04-23T04:40:19;32.72;;;25.30;;
64297;SDS011;50639;53.270;7.956;2023-04-23T04:42:44;33.92;;;27.30;;
64297;SDS011;50639;53.270;7.956;2023-04-23T04:45:10;32.72;;;25.40;;
64297;SDS011;50639;53.270;7.956;2023-04-23T04:47:36;32.80;;;25.35;;
64297;SDS011;50639;53.270;7.956;2023-04-23T04:50:02;34.50;;;28.20;;
64297;SDS011;50639;53.270;7.956;2023-04-23T04:52:29;39.85;;;27.63;;
64297;SDS011;50639;53.270;7.956;2023-04-23T04:54:54;30.95;;;25.15;;
64297;SDS011;50639;53.270;7.956;2023-04-23T04:57:19;33.88;;;24.85;;
64297;SDS011;50639;53.270;7.956;2023-04-23T04:59:47;31.88;;;25.08;;
64297;SDS011;50639;53.270;7.956;2023-04-23T05:02:13;37.80;;;26.98;;
64297;SDS011;50639;53.270;7.956;2023-04-23T05:04:38;37.38;;;28.50;;
64297;SDS011;50639;53.270;7.956;2023-04-23T05:07:04;31.58;;;24.40;;
64297;SDS011;50639;53.270;7.956;2023-04-23T05:09:29;28.58;;;23.40;;
64297;SDS011;50639;53.270;7.956;2023-04-23T05:11:55;43.97;;;26.83;;
64297;SDS011;50639;53.270;7.956;2023-04-23T05:14:21;34.70;;;26.52;;
64297;SDS011;50639;53.270;7.956;2023-04-23T05:16:46;34.47;;;27.13;;
64297;SDS011;50639;53.270;7.956;2023-04-23T05:19:12;44.53;;;32.47;;
64297;SDS011;50639;53.270;7.956;2023-04-23T05:21:38;36.83;;;28.80;;
64297;SDS011;50639;53.270;7.956;2023-04-23T05:24:03;41.67;;;31.17;;
64297;SDS011;50639;53.270;7.956;2023-04-23T05:26:29;36.42;;;27.70;;
64297;SDS011;50639;53.270;7.956;2023-04-23T05:28:54;34.75;;;27.80;;
64297;SDS011;50639;53.270;7.956;2023-04-23T05:31:20;34.10;;;27.85;;
64297;SDS011;50639;53.270;7.956;2023-04-23T05:33:45;32.53;;;25.88;;
64297;SDS011;50639;53.270;7.956;2023-04-23T05:36:11;31.20;;;26.23;;
64297;SDS011;50639;53.270;7.956;2023-04-23T05:38:37;33.05;;;26.70;;
64297;SDS011;50639;53.270;7.956;2023-04-23T05:41:03;37.38;;;29.33;;
64297;SDS011;50639;53.270;7.956;2023-04-23T05:43:28;35.33;;;28.75;;
64297;SDS011;50639;53.270;7.956;2023-04-23T05:45:54;36.33;;;28.73;;
64297;SDS011;50639;53.270;7.956;2023-04-23T05:48:19;40.30;;;31.50;;
64297;SDS011;50639;53.270;7.956;2023-04-23T05:50:45;37.20;;;28.67;;
64297;SDS011;50639;53.270;7.956;2023-04-23T05:53:10;37.03;;;30.10;;
64297;SDS011;50639;53.270;7.956;2023-04-23T05:55:36;40.50;;;30.27;;
64297;SDS011;50639;53.270;7.956;2023-04-23T05:58:02;37.70;;;29.48;;
64297;SDS011;50639;53.270;7.956;2023-04-23T06:00:27;38.70;;;31.45;;
64297;SDS011;50639;53.270;7.956;2023-04-23T06:02:53;49.40;;;38.83;;
64297;SDS011;50639;53.270;7.956;2023-04-23T06:05:18;41.95;;;32.30;;
64297;SDS011;50639;53.270;7.956;2023-04-23T06:07:44;38.40;;;30.17;;
64297;SDS011;50639;53.270;7.956;2023-04-23T06:10:10;40.83;;;32.30;;
64297;SDS011;50639;53.270;7.956;2023-04-23T06:12:35;47.10;;;34.75;;
64297;SDS011;50639;53.270;7.956;2023-04-23T06:17:30;44.90;;;31.30;;
64297;SDS011;50639;53.270;7.956;2023-04-23T06:19:55;44.80;;;33.40;;
64297;SDS011;50639;53.270;7.956;2023-04-23T06:22:21;47.00;;;33.50;;
64297;SDS011;50639;53.270;7.956;2023-04-23T06:24:46;53.30;;;39.10;;
64297;SDS011;50639;53.270;7.956;2023-04-23T06:27:12;58.63;;;41.13;;
64297;SDS011;50639;53.270;7.956;2023-04-23T06:29:42;56.72;;;38.78;;
64297;SDS011;50639;53.270;7.956;2023-04-23T06:32:08;52.33;;;39.40;;
64297;SDS011;50639;53.270;7.956;2023-04-23T06:34:33;57.22;;;41.28;;
64297;SDS011;50639;53.270;7.956;2023-04-23T06:36:59;54.15;;;40.60;;
64297;SDS011;50639;53.270;7.956;2023-04-23T06:39:24;54.20;;;39.38;;
64297;SDS011;50639;53.270;7.956;2023-04-23T06:41:50;57.83;;;43.10;;
64297;SDS011;50639;53.270;7.956;2023-04-23T06:44:32;55.63;;;42.65;;
64297;SDS011;50639;53.270;7.956;2023-04-23T06:46:57;62.10;;;43.53;;
64297;SDS011;50639;53.270;7.956;2023-04-23T06:49:22;62.47;;;45.47;;
64297;SDS011;50639;53.270;7.956;2023-04-23T06:51:48;64.82;;;47.85;;
64297;SDS011;50639;53.270;7.956;2023-04-23T06:54:13;68.22;;;49.38;;
64297;SDS011;50639;53.270;7.956;2023-04-23T06:56:39;67.57;;;48.67;;
64297;SDS011;50639;53.270;7.956;2023-04-23T06:59:04;60.88;;;43.95;;
64297;SDS011;50639;53.270;7.956;2023-04-23T07:01:33;67.80;;;50.28;;
64297;SDS011;50639;53.270;7.956;2023-04-23T07:03:59;69.45;;;50.42;;
64297;SDS011;50639;53.270;7.956;2023-04-23T07:06:25;66.25;;;50.85;;
64297;SDS011;50639;53.270;7.956;2023-04-23T07:08:51;71.32;;;54.10;;
64297;SDS011;50639;53.270;7.956;2023-04-23T07:11:17;72.75;;;54.42;;
64297;SDS011;50639;53.270;7.956;2023-04-23T07:13:42;70.38;;;54.60;;
64297;SDS011;50639;53.270;7.956;2023-04-23T07:16:08;72.43;;;54.63;;
64297;SDS011;50639;53.270;7.956;2023-04-23T07:18:33;73.18;;;54.78;;
64297;SDS011;50639;53.270;7.956;2023-04-23T07:20:58;74.80;;;54.95;;
64297;SDS011;50639;53.270;7.956;2023-04-23T07:23:24;71.85;;;54.72;;
64297;SDS011;50639;53.270;7.956;2023-04-23T07:25:50;70.72;;;53.90;;
64297;SDS011;50639;53.270;7.956;2023-04-23T07:28:16;69.05;;;52.72;;
64297;SDS011;50639;53.270;7.956;2023-04-23T07:30:41;66.25;;;50.90;;
64297;SDS011;50639;53.270;7.956;2023-04-23T07:33:07;69.72;;;52.28;;
64297;SDS011;50639;53.270;7.956;2023-04-23T07:35:32;63.45;;;50.25;;
64297;SDS011;50639;53.270;7.956;2023-04-23T07:37:58;61.33;;;50.10;;
64297;SDS011;50639;53.270;7.956;2023-04-23T07:40:23;64.38;;;47.22;;
64297;SDS011;50639;53.270;7.956;2023-04-23T07:42:50;61.00;;;48.58;;
64297;SDS011;50639;53.270;7.956;2023-04-23T07:45:16;59.27;;;46.73;;
64297;SDS011;50639;53.270;7.956;2023-04-23T07:47:42;59.20;;;47.92;;
64297;SDS011;50639;53.270;7.956;2023-04-23T07:50:08;58.60;;;45.95;;
64297;SDS011;50639;53.270;7.956;2023-04-23T07:52:34;58.15;;;47.72;;
64297;SDS011;50639;53.270;7.956;2023-04-23T07:55:00;57.25;;;47.20;;
64297;SDS011;50639;53.270;7.956;2023-04-23T07:57:26;59.47;;;45.70;;
64297;SDS011;50639;53.270;7.956;2023-04-23T07:59:51;51.78;;;42.92;;
64297;SDS011;50639;53.270;7.956;2023-04-23T08:02:17;51.17;;;44.40;;
64297;SDS011;50639;53.270;7.956;2023-04-23T08:04:47;51.75;;;42.42;;
64297;SDS011;50639;53.270;7.956;2023-04-23T08:07:13;50.22;;;42.60;;
64297;SDS011;50639;53.270;7.956;2023-04-23T08:09:38;44.75;;;38.80;;
64297;SDS011;50639;53.270;7.956;2023-04-23T08:12:04;45.47;;;38.88;;
64297;SDS011;50639;53.270;7.956;2023-04-23T08:14:29;49.65;;;39.00;;
64297;SDS011;50639;53.270;7.956;2023-04-23T08:16:55;48.33;;;39.45;;
64297;SDS011;50639;53.270;7.956;2023-04-23T08:19:20;48.17;;;40.17;;
64297;SDS011;50639;53.270;7.956;2023-04-23T08:21:45;43.40;;;34.25;;
64297;SDS011;50639;53.270;7.956;2023-04-23T08:24:11;41.50;;;34.33;;
64297;SDS011;50639;53.270;7.956;2023-04-23T08:26:36;41.65;;;32.63;;
64297;SDS011;50639;53.270;7.956;2023-04-23T08:29:02;39.25;;;34.08;;
64297;SDS011;50639;53.270;7.956;2023-04-23T08:31:28;38.58;;;31.88;;
64297;SDS011;50639;53.270;7.956;2023-04-23T08:33:54;41.92;;;34.17;;
64297;SDS011;50639;53.270;7.956;2023-04-23T08:36:20;38.47;;;33.10;;
64297;SDS011;50639;53.270;7.956;2023-04-23T08:38:45;39.28;;;32.80;;
64297;SDS011;50639;53.270;7.956;2023-04-23T08:41:12;35.35;;;31.42;;
64297;SDS011;50639;53.270;7.956;2023-04-23T08:43:46;36.30;;;31.90;;
64297;SDS011;50639;53.270;7.956;2023-04-23T08:48:43;36.38;;;30.40;;
64297;SDS011;50639;53.270;7.956;2023-04-23T08:51:09;37.67;;;32.00;;
64297;SDS011;50639;53.270;7.956;2023-04-23T08:53:39;34.03;;;29.95;;
64297;SDS011;50639;53.270;7.956;2023-04-23T08:56:08;33.80;;;29.23;;
64297;SDS011;50639;53.270;7.956;2023-04-23T08:58:34;33.30;;;29.00;;
64297;SDS011;50639;53.270;7.956;2023-04-23T09:01:00;34.08;;;30.38;;
64297;SDS011;50639;53.270;7.956;2023-04-23T09:03:26;34.88;;;30.63;;
64297;SDS011;50639;53.270;7.956;2023-04-23T09:05:53;32.78;;;28.88;;
64297;SDS011;50639;53.270;7.956;2023-04-23T09:08:20;31.30;;;25.02;;
64297;SDS011;50639;53.270;7.956;2023-04-23T09:10:45;28.33;;;22.70;;
64297;SDS011;50639;53.270;7.956;2023-04-23T09:13:11;26.42;;;22.88;;
64297;SDS011;50639;53.270;7.956;2023-04-23T09:15:40;27.70;;;22.67;;
64297;SDS011;50639;53.270;7.956;2023-04-23T09:18:08;27.77;;;23.52;;
64297;SDS011;50639;53.270;7.956;2023-04-23T09:20:36;25.52;;;22.73;;
64297;SDS011;50639;53.270;7.956;2023-04-23T09:23:05;25.63;;;22.05;;
64297;SDS011;50639;53.270;7.956;2023-04-23T09:25:33;24.48;;;21.80;;
64297;SDS011;50639;53.270;7.956;2023-04-23T09:27:59;28.33;;;23.23;;
64297;SDS011;50639;53.270;7.956;2023-04-23T09:30:27;25.65;;;22.85;;
64297;SDS011;50639;53.270;7.956;2023-04-23T09:32:53;24.75;;;21.88;;
64297;SDS011;50639;53.270;7.956;2023-04-23T09:35:19;27.08;;;22.42;;
64297;SDS011;50639;53.270;7.956;2023-04-23T09:37:45;26.42;;;22.58;;
64297;SDS011;50639;53.270;7.956;2023-04-23T09:40:17;24.88;;;21.88;;
64297;SDS011;50639;53.270;7.956;2023-04-23T09:42:47;22.83;;;19.50;;
64297;SDS011;50639;53.270;7.956;2023-04-23T09:45:14;22.50;;;19.23;;
64297;SDS011;50639;53.270;7.956;2023-04-23T09:50:12;23.27;;;20.75;;
64297;SDS011;50639;53.270;7.956;2023-04-23T09:52:38;24.13;;;21.00;;
64297;SDS011;50639;53.270;7.956;2023-04-23T09:55:04;22.92;;;20.52;;
64297;SDS011;50639;53.270;7.956;2023-04-23T09:57:34;26.75;;;20.38;;
64297;SDS011;50639;53.270;7.956;2023-04-23T10:00:14;24.20;;;20.92;;
64297;SDS011;50639;53.270;7.956;2023-04-23T10:02:46;27.40;;;20.98;;
64297;SDS011;50639;53.270;7.956;2023-04-23T10:05:15;24.23;;;20.38;;
64297;SDS011;50639;53.270;7.956;2023-04-23T10:07:45;24.90;;;20.75;;
64297;SDS011;50639;53.270;7.956;2023-04-23T10:10:13;22.52;;;19.95;;
64297;SDS011;50639;53.270;7.956;2023-04-23T10:12:39;22.50;;;19.13;;
64297;SDS011;50639;53.270;7.956;2023-04-23T10:15:05;23.13;;;19.45;;
64297;SDS011;50639;53.270;7.956;2023-04-23T10:17:33;23.37;;;19.77;;
64297;SDS011;50639;53.270;7.956;2023-04-23T10:20:00;24.13;;;19.52;;
64297;SDS011;50639;53.270;7.956;2023-04-23T10:22:29;23.73;;;18.65;;
64297;SDS011;50639;53.270;7.956;2023-04-23T10:24:55;23.02;;;18.20;;
64297;SDS011;50639;53.270;7.956;2023-04-23T10:27:28;23.30;;;18.95;;
64297;SDS011;50639;53.270;7.956;2023-04-23T10:29:59;23.45;;;18.23;;
64297;SDS011;50639;53.270;7.956;2023-04-23T10:32:25;22.10;;;19.70;;
64297;SDS011;50639;53.270;7.956;2023-04-23T10:34:51;23.77;;;20.42;;
64297;SDS011;50639;53.270;7.956;2023-04-23T10:37:17;23.80;;;19.15;;
64297;SDS011;50639;53.270;7.956;2023-04-23T10:39:45;23.83;;;19.25;;
64297;SDS011;50639;53.270;7.956;2023-04-23T10:42:14;21.35;;;17.98;;
64297;SDS011;50639;53.270;7.956;2023-04-23T10:44:42;23.48;;;19.33;;
64297;SDS011;50639;53.270;7.956;2023-04-23T10:47:14;21.60;;;17.92;;
64297;SDS011;50639;53.270;7.956;2023-04-23T10:49:40;20.63;;;18.23;;
64297;SDS011;50639;53.270;7.956;2023-04-23T10:52:14;20.50;;;17.38;;
64297;SDS011;50639;53.270;7.956;2023-04-23T10:54:42;21.55;;;18.35;;
64297;SDS011;50639;53.270;7.956;2023-04-23T10:57:08;20.98;;;17.95;;
64297;SDS011;50639;53.270;7.956;2023-04-23T10:59:38;22.60;;;18.42;;
64297;SDS011;50639;53.270;7.956;2023-04-23T11:02:18;19.25;;;15.95;;
64297;SDS011;50639;53.270;7.956;2023-04-23T11:04:44;17.17;;;14.40;;
64297;SDS011;50639;53.270;7.956;2023-04-23T11:07:11;19.23;;;15.35;;
64297;SDS011;50639;53.270;7.956;2023-04-23T11:09:39;15.38;;;12.43;;
64297;SDS011;50639;53.270;7.956;2023-04-23T11:12:39;21.02;;;13.88;;
64297;SDS011;50639;53.270;7.956;2023-04-23T11:14:58;20.13;;;14.98;;
64297;SDS011;50639;53.270;7.956;2023-04-23T11:20:07;13.82;;;11.20;;
64297;SDS011;50639;53.270;7.956;2023-04-23T11:25:19;14.98;;;11.82;;
64297;SDS011;50639;53.270;7.956;2023-04-23T11:27:46;16.13;;;11.63;;
64297;SDS011;50639;53.270;7.956;2023-04-23T11:30:13;16.48;;;12.15;;
64297;SDS011;50639;53.270;7.956;2023-04-23T11:32:40;14.02;;;10.77;;
64297;SDS011;50639;53.270;7.956;2023-04-23T11:35:09;15.02;;;10.57;;
64297;SDS011;50639;53.270;7.956;2023-04-23T11:37:41;16.97;;;11.20;;
64297;SDS011;50639;53.270;7.956;2023-04-23T11:40:09;13.65;;;9.88;;
64297;SDS011;50639;53.270;7.956;2023-04-23T11:42:40;16.00;;;10.52;;
64297;SDS011;50639;53.270;7.956;2023-04-23T11:45:20;15.50;;;9.70;;
64297;SDS011;50639;53.270;7.956;2023-04-23T11:47:48;14.10;;;11.20;;
64297;SDS011;50639;53.270;7.956;2023-04-23T11:50:18;13.93;;;10.00;;
64297;SDS011;50639;53.270;7.956;2023-04-23T11:52:46;13.35;;;8.75;;
64297;SDS011;50639;53.270;7.956;2023-04-23T11:55:12;12.82;;;9.63;;
64297;SDS011;50639;53.270;7.956;2023-04-23T11:57:41;10.95;;;9.75;;
64297;SDS011;50639;53.270;7.956;2023-04-23T12:00:17;12.15;;;10.07;;
64297;SDS011;50639;53.270;7.956;2023-04-23T12:02:53;12.57;;;8.50;;
64297;SDS011;50639;53.270;7.956;2023-04-23T12:05:20;13.32;;;9.10;;
64297;SDS011;50639;53.270;7.956;2023-04-23T12:08:16;13.45;;;9.30;;
64297;SDS011;50639;53.270;7.956;2023-04-23T12:10:52;13.17;;;9.73;;
64297;SDS011;50639;53.270;7.956;2023-04-23T12:13:29;17.93;;;10.50;;
64297;SDS011;50639;53.270;7.956;2023-04-23T12:15:58;14.15;;;9.30;;
64297;SDS011;50639;53.270;7.956;2023-04-23T12:18:28;12.40;;;9.25;;
64297;SDS011;50639;53.270;7.956;2023-04-23T12:21:07;20.58;;;10.10;;
64297;SDS011;50639;53.270;7.956;2023-04-23T12:23:35;20.30;;;12.73;;
64297;SDS011;50639;53.270;7.956;2023-04-23T12:26:01;12.27;;;8.88;;
64297;SDS011;50639;53.270;7.956;2023-04-23T12:28:28;13.45;;;8.95;;
64297;SDS011;50639;53.270;7.956;2023-04-23T12:30:58;12.73;;;8.15;;
64297;SDS011;50639;53.270;7.956;2023-04-23T12:33:27;12.13;;;9.13;;
64297;SDS011;50639;53.270;7.956;2023-04-23T12:35:54;11.07;;;7.97;;
64297;SDS011;50639;53.270;7.956;2023-04-23T12:38:22;10.18;;;7.03;;
64297;SDS011;50639;53.270;7.956;2023-04-23T12:40:55;9.85;;;7.20;;
64297;SDS011;50639;53.270;7.956;2023-04-23T12:43:24;13.98;;;9.20;;
64297;SDS011;50639;53.270;7.956;2023-04-23T12:45:51;12.27;;;7.77;;
64297;SDS011;50639;53.270;7.956;2023-04-23T12:48:17;11.45;;;7.50;;
64297;SDS011;50639;53.270;7.956;2023-04-23T12:50:46;10.40;;;5.28;;
64297;SDS011;50639;53.270;7.956;2023-04-23T12:53:12;8.55;;;5.07;;
64297;SDS011;50639;53.270;7.956;2023-04-23T12:55:38;9.45;;;5.30;;
64297;SDS011;50639;53.270;7.956;2023-04-23T12:58:04;9.15;;;5.03;;
64297;SDS011;50639;53.270;7.956;2023-04-23T13:00:30;9.10;;;4.13;;
64297;SDS011;50639;53.270;7.956;2023-04-23T13:02:55;8.55;;;4.70;;
64297;SDS011;50639;53.270;7.956;2023-04-23T13:05:21;8.98;;;4.07;;
64297;SDS011;50639;53.270;7.956;2023-04-23T13:07:47;9.35;;;5.20;;
64297;SDS011;50639;53.270;7.956;2023-04-23T13:10:12;9.23;;;4.43;;
64297;SDS011;50639;53.270;7.956;2023-04-23T13:12:38;8.70;;;4.25;;
64297;SDS011;50639;53.270;7.956;2023-04-23T13:15:05;9.67;;;4.67;;
64297;SDS011;50639;53.270;7.956;2023-04-23T13:17:31;8.82;;;4.45;;
64297;SDS011;50639;53.270;7.956;2023-04-23T13:19:57;8.55;;;4.10;;
64297;SDS011;50639;53.270;7.956;2023-04-23T13:22:23;8.57;;;4.65;;
64297;SDS011;50639;53.270;7.956;2023-04-23T13:24:52;6.72;;;3.65;;
64297;SDS011;50639;53.270;7.956;2023-04-23T13:27:19;7.65;;;3.70;;
64297;SDS011;50639;53.270;7.956;2023-04-23T13:29:44;8.63;;;4.00;;
64297;SDS011;50639;53.270;7.956;2023-04-23T13:32:09;9.52;;;3.90;;
64297;SDS011;50639;53.270;7.956;2023-04-23T13:34:35;7.60;;;2.97;;
64297;SDS011;50639;53.270;7.956;2023-04-23T13:37:01;8.57;;;3.47;;
64297;SDS011;50639;53.270;7.956;2023-04-23T13:39:30;7.95;;;3.70;;
64297;SDS011;50639;53.270;7.956;2023-04-23T13:41:56;8.75;;;3.30;;
64297;SDS011;50639;53.270;7.956;2023-04-23T13:44:21;9.50;;;4.43;;
64297;SDS011;50639;53.270;7.956;2023-04-23T13:46:47;7.53;;;2.70;;
64297;SDS011;50639;53.270;7.956;2023-04-23T13:49:13;5.80;;;2.80;;
64297;SDS011;50639;53.270;7.956;2023-04-23T13:51:39;7.70;;;2.97;;
64297;SDS011;50639;53.270;7.956;2023-04-23T13:54:04;5.30;;;2.95;;
64297;SDS011;50639;53.270;7.956;2023-04-23T13:56:31;6.30;;;2.80;;
64297;SDS011;50639;53.270;7.956;2023-04-23T13:58:56;6.72;;;2.78;;
64297;SDS011;50639;53.270;7.956;2023-04-23T14:01:28;6.57;;;2.75;;
64297;SDS011;50639;53.270;7.956;2023-04-23T14:03:54;7.13;;;2.97;;
64297;SDS011;50639;53.270;7.956;2023-04-23T14:06:21;5.82;;;2.72;;
64297;SDS011;50639;53.270;7.956;2023-04-23T14:08:47;6.35;;;2.90;;
64297;SDS011;50639;53.270;7.956;2023-04-23T14:11:12;5.55;;;2.70;;
64297;SDS011;50639;53.270;7.956;2023-04-23T14:13:37;5.47;;;2.53;;
64297;SDS011;50639;53.270;7.956;2023-04-23T14:16:03;8.13;;;2.70;;
64297;SDS011;50639;53.270;7.956;2023-04-23T14:18:29;7.15;;;3.33;;
64297;SDS011;50639;53.270;7.956;2023-04-23T14:20:54;5.38;;;2.40;;
64297;SDS011;50639;53.270;7.956;2023-04-23T14:25:56;5.40;;;2.30;;
64297;SDS011;50639;53.270;7.956;2023-04-23T14:28:33;7.63;;;2.72;;
64297;SDS011;50639;53.270;7.956;2023-04-23T14:31:03;8.15;;;2.90;;
64297;SDS011;50639;53.270;7.956;2023-04-23T14:33:28;5.65;;;2.67;;
64297;SDS011;50639;53.270;7.956;2023-04-23T14:35:54;6.32;;;2.85;;
64297;SDS011;50639;53.270;7.956;2023-04-23T14:38:20;7.18;;;2.30;;
64297;SDS011;50639;53.270;7.956;2023-04-23T14:40:45;8.60;;;2.58;;
64297;SDS011;50639;53.270;7.956;2023-04-23T14:43:11;6.68;;;2.42;;
64297;SDS011;50639;53.270;7.956;2023-04-23T14:45:37;12.00;;;2.67;;